Time;durP1;ratioP1;P1;durP2;ratioP2;P2;SDS_P1;SDS_P2;PMS_P1;PMS_P2;Temp;Humidity;BMP_temperature;BMP_pressure;BME280_temperature;BME280_humidity;BME280_pressure;Samples;Min_cycle;Max_cycle;Signal;HPM_P1;HPM_P2
2022/08/05 00:08:12;;;;;;;2.15;0.70;;;31.70;46.40;;;;;;20983740;28;20483;-75
2022/08/05 00:18:12;;;;;;;3.78;1.38;;;31.70;46.50;;;;;;20966462;28;20041;-76
2022/08/05 00:28:13;;;;;;;0.82;0.75;;;31.70;46.60;;;;;;20949648;28;20174;-76
2022/08/05 00:38:14;;;;;;;1.67;0.73;;;31.60;46.60;;;;;;20983069;28;20048;-76
2022/08/05 00:48:19;;;;;;;1.85;1.02;;;31.70;46.80;;;;;;20948218;28;20032;-76
2022/08/05 00:58:20;;;;;;;0.95;0.77;;;31.60;46.80;;;;;;20964020;28;20032;-76
2022/08/05 01:08:20;;;;;;;1.55;1.00;;;31.60;46.90;;;;;;21229931;22;20073;-75
2022/08/05 01:18:33;;;;;;;2.20;1.42;;;31.60;46.90;;;;;;20732296;28;20496;-76
2022/08/05 01:29:03;;;;;;;0.87;0.70;;;31.50;46.90;;;;;;20731353;28;20065;-75
2022/08/05 01:39:05;;;;;;;2.38;0.88;;;31.50;47.00;;;;;;20718803;28;20291;-76
2022/08/05 01:49:06;;;;;;;2.22;1.10;;;31.50;47.00;;;;;;20729574;28;20038;-76
2022/08/05 01:59:08;;;;;;;0.82;0.68;;;31.50;47.10;;;;;;20729309;28;20033;-76
2022/08/05 02:09:09;;;;;;;2.33;1.00;;;31.50;47.10;;;;;;20744619;28;20404;-76
2022/08/05 02:19:35;;;;;;;2.05;1.00;;;31.50;47.10;;;;;;20728654;28;20029;-75
2022/08/05 02:29:36;;;;;;;2.80;0.73;;;31.50;47.20;;;;;;20727668;28;20133;-74
2022/08/05 02:39:37;;;;;;;1.05;0.88;;;31.50;47.30;;;;;;20727181;28;20088;-78
2022/08/05 02:49:40;;;;;;;1.80;1.17;;;31.50;47.40;;;;;;20726629;28;20034;-74
2022/08/05 02:59:41;;;;;;;1.17;0.77;;;31.50;47.40;;;;;;20729351;28;20056;-75
2022/08/05 03:09:43;;;;;;;2.22;1.05;;;31.40;47.30;;;;;;20711822;28;20048;-72
2022/08/05 03:19:43;;;;;;;4.03;1.00;;;31.40;47.40;;;;;;20742879;28;20029;-71
2022/08/05 03:29:44;;;;;;;3.47;0.98;;;31.20;47.70;;;;;;20749669;28;20046;-74
2022/08/05 03:39:55;;;;;;;1.25;0.95;;;30.90;48.20;;;;;;20763325;28;20404;-74
2022/08/05 03:49:55;;;;;;;1.45;0.95;;;30.70;48.80;;;;;;20751107;28;20045;-73
2022/08/05 04:00:02;;;;;;;1.70;1.15;;;30.40;49.10;;;;;;20735105;28;20062;-73
2022/08/05 04:10:12;;;;;;;0.88;0.75;;;30.30;49.50;;;;;;20754736;28;20054;-73
2022/08/05 04:20:18;;;;;;;1.85;1.20;;;30.20;49.70;;;;;;20766728;28;20029;-74
2022/08/05 04:30:18;;;;;;;1.98;1.17;;;30.30;49.80;;;;;;20749751;28;20045;-73
2022/08/05 04:40:19;;;;;;;2.50;1.48;;;30.20;49.80;;;;;;20760019;28;20026;-72
2022/08/05 04:50:20;;;;;;;3.30;1.40;;;30.20;49.80;;;;;;20736663;28;20449;-72
2022/08/05 05:00:20;;;;;;;1.60;1.23;;;30.20;49.80;;;;;;20736624;28;20041;-75
2022/08/05 05:10:21;;;;;;;3.35;1.17;;;30.20;49.80;;;;;;20750893;28;20305;-72
2022/08/05 05:20:21;;;;;;;1.80;1.23;;;30.20;49.70;;;;;;20734585;28;20089;-73
2022/08/05 05:30:22;;;;;;;1.77;1.13;;;30.20;49.70;;;;;;20732643;28;20484;-72
2022/08/05 05:40:23;;;;;;;1.92;1.20;;;30.20;49.80;;;;;;20731589;28;20471;-72
2022/08/05 05:50:23;;;;;;;1.40;1.00;;;30.10;49.70;;;;;;20730412;28;20044;-73
2022/08/05 06:00:24;;;;;;;3.83;2.03;;;30.20;49.90;;;;;;20729850;28;20384;-74
2022/08/05 06:10:25;;;;;;;2.95;1.40;;;30.10;49.80;;;;;;20728474;28;20386;-73
2022/08/05 06:20:25;;;;;;;1.95;1.60;;;30.10;49.80;;;;;;20728048;28;20042;-73
2022/08/05 06:30:26;;;;;;;3.40;1.20;;;30.10;49.90;;;;;;20727562;28;20045;-72
2022/08/05 06:40:26;;;;;;;2.28;1.38;;;30.10;49.90;;;;;;20727193;28;20053;-72
2022/08/05 06:50:27;;;;;;;2.50;1.60;;;30.00;49.90;;;;;;20742810;28;20037;-71
2022/08/05 07:00:27;;;;;;;3.30;1.33;;;30.10;50.00;;;;;;20741608;28;20029;-74
2022/08/05 07:10:28;;;;;;;3.55;1.50;;;30.00;50.00;;;;;;20741821;28;20129;-74
2022/08/05 07:20:29;;;;;;;3.25;1.67;;;30.00;50.10;;;;;;20724767;28;20137;-73
2022/08/05 07:30:30;;;;;;;2.13;1.58;;;30.10;50.10;;;;;;20740521;28;20042;-72
2022/08/05 07:40:31;;;;;;;2.03;1.30;;;30.10;49.90;;;;;;20723901;28;20076;-73
2022/08/05 07:50:32;;;;;;;2.78;1.38;;;30.10;49.90;;;;;;20739941;28;20034;-71
2022/08/05 08:00:32;;;;;;;1.90;1.40;;;30.10;49.80;;;;;;20738894;28;20045;-71
2022/08/05 08:10:33;;;;;;;1.73;1.40;;;30.20;49.80;;;;;;20705939;28;20582;-73
2022/08/05 08:20:33;;;;;;;2.60;1.60;;;30.20;49.70;;;;;;20734095;28;20120;-72
2022/08/05 08:30:34;;;;;;;2.35;1.63;;;30.20;49.60;;;;;;20736930;28;20124;-73
2022/08/05 08:40:34;;;;;;;2.33;1.17;;;30.20;49.60;;;;;;20735841;28;20075;-76
2022/08/05 08:50:38;;;;;;;3.08;1.88;;;30.20;49.60;;;;;;20734934;28;20042;-74
2022/08/05 09:00:38;;;;;;;;;;;30.10;49.60;;;;;;20736070;28;20030;-74
2022/08/05 09:10:43;;;;;;;1.27;1.17;;;30.10;49.70;;;;;;20734906;28;20012;-74
2022/08/05 09:20:45;;;;;;;1.77;1.13;;;30.10;49.80;;;;;;20749764;28;20107;-72
2022/08/05 09:30:59;;;;;;;1.60;1.25;;;30.10;49.90;;;;;;20748045;28;20048;-72
2022/08/05 09:41:04;;;;;;;1.60;1.40;;;30.00;50.00;;;;;;20732704;28;20033;-75
2022/08/05 09:51:07;;;;;;;2.20;1.58;;;30.10;50.10;;;;;;20715017;28;20030;-73
2022/08/05 10:01:10;;;;;;;1.73;1.38;;;29.90;50.00;;;;;;20730299;28;20084;-74
2022/08/05 10:11:14;;;;;;;;;;;29.90;50.10;;;;;;20745273;28;20033;-73
2022/08/05 10:21:15;;;;;;;3.20;1.63;;;29.90;50.20;;;;;;20744374;28;20410;-75
2022/08/05 10:31:16;;;;;;;2.67;2.08;;;29.90;50.20;;;;;;20727700;28;20033;-73
2022/08/05 10:41:20;;;;;;;2.17;1.52;;;29.80;50.30;;;;;;20725602;28;20080;-72
2022/08/05 10:51:21;;;;;;;1.98;1.38;;;29.80;50.40;;;;;;20725956;28;20040;-71
2022/08/05 11:01:35;;;;;;;2.17;1.90;;;29.80;50.50;;;;;;20741891;28;20069;-71
2022/08/05 11:11:36;;;;;;;1.83;1.55;;;29.80;50.60;;;;;;20708422;28;20294;-71
2022/08/05 11:21:37;;;;;;;1.63;1.30;;;29.80;50.70;;;;;;20740537;28;20432;-74
2022/08/05 11:31:38;;;;;;;1.58;1.27;;;29.80;50.80;;;;;;20707940;28;20041;-74
2022/08/05 11:41:39;;;;;;;1.70;1.27;;;29.70;50.70;;;;;;20724510;28;20054;-72
2022/08/05 11:51:43;;;;;;;1.65;1.00;;;29.70;50.70;;;;;;20731785;28;20091;-75
2022/08/05 12:01:58;;;;;;;1.08;0.98;;;29.70;50.70;;;;;;20738477;28;20172;-72
2022/08/05 12:11:58;;;;;;;1.73;1.17;;;29.60;50.70;;;;;;20754428;28;20045;-73
2022/08/05 12:21:59;;;;;;;1.48;1.10;;;29.60;50.80;;;;;;20753433;28;20037;-72
2022/08/05 12:32:00;;;;;;;2.05;1.10;;;29.50;50.80;;;;;;20737241;28;20065;-71
2022/08/05 12:42:00;;;;;;;1.77;1.20;;;29.50;50.90;;;;;;20719212;28;20472;-72
2022/08/05 12:52:01;;;;;;;1.35;1.02;;;29.50;51.00;;;;;;20735247;28;20121;-74
2022/08/05 13:02:03;;;;;;;1.00;0.90;;;29.50;51.00;;;;;;20733068;28;20071;-72
2022/08/05 13:12:08;;;;;;;1.02;0.88;;;29.50;51.00;;;;;;20733170;28;20132;-72
2022/08/05 13:22:09;;;;;;;1.98;0.90;;;29.40;50.90;;;;;;20732469;28;20100;-74
2022/08/05 13:32:09;;;;;;;2.95;0.88;;;29.40;50.90;;;;;;20732065;28;20030;-73
2022/08/05 13:42:10;;;;;;;1.80;0.93;;;29.40;50.80;;;;;;20714929;28;20088;-75
2022/08/05 13:52:11;;;;;;;1.30;0.80;;;29.30;50.70;;;;;;20746655;28;20370;-79
2022/08/05 14:02:12;;;;;;;0.70;0.70;;;29.30;50.70;;;;;;20729854;28;20069;-77
2022/08/05 14:12:13;;;;;;;1.67;1.00;;;29.30;50.70;;;;;;20729104;28;20096;-76
2022/08/05 14:22:13;;;;;;;0.88;0.50;;;29.30;50.70;;;;;;20728045;28;20037;-77
2022/08/05 14:32:14;;;;;;;1.15;0.68;;;29.30;50.70;;;;;;20743740;28;20052;-72
2022/08/05 14:42:14;;;;;;;1.08;0.77;;;29.20;50.60;;;;;;20710412;28;20025;-72
2022/08/05 14:52:15;;;;;;;0.73;0.68;;;29.20;50.60;;;;;;20726142;28;20113;-73
2022/08/05 15:02:15;;;;;;;1.13;0.70;;;29.20;50.60;;;;;;20725361;28;20037;-73
2022/08/05 15:12:16;;;;;;;1.27;0.65;;;29.10;50.50;;;;;;20724993;28;20058;-73
2022/08/05 15:22:17;;;;;;;0.98;0.60;;;29.10;50.50;;;;;;20741336;28;20113;-79
2022/08/05 15:32:17;;;;;;;1.02;0.75;;;29.10;50.50;;;;;;20724283;28;20036;-75
2022/08/05 15:42:18;;;;;;;1.15;0.60;;;29.10;50.50;;;;;;20724463;28;20037;-74
2022/08/05 15:52:19;;;;;;;1.80;0.65;;;29.00;50.40;;;;;;20723359;28;20045;-73
2022/08/05 16:02:19;;;;;;;0.63;0.60;;;29.00;50.40;;;;;;20723791;28;20142;-72
2022/08/05 16:12:20;;;;;;;0.60;0.40;;;29.00;50.40;;;;;;20722538;28;20121;-76
2022/08/05 16:22:20;;;;;;;0.70;0.65;;;28.90;50.30;;;;;;20721979;28;20415;-75
2022/08/05 16:32:21;;;;;;;0.63;0.50;;;28.90;50.30;;;;;;20706621;28;20491;-73
2022/08/05 16:42:22;;;;;;;1.63;0.70;;;28.80;50.00;;;;;;20734478;28;20121;-72
2022/08/05 16:52:22;;;;;;;1.50;0.85;;;28.90;49.90;;;;;;20735582;28;20034;-73
2022/08/05 17:02:23;;;;;;;1.73;0.68;;;28.80;49.80;;;;;;20734468;28;20841;-72
2022/08/05 17:12:23;;;;;;;0.80;0.70;;;28.80;49.90;;;;;;20734017;28;20041;-72
2022/08/05 17:22:24;;;;;;;0.65;0.50;;;28.90;49.80;;;;;;20733099;28;20743;-76
2022/08/05 17:32:24;;;;;;;2.30;0.57;;;28.80;49.80;;;;;;20732228;28;20040;-74
2022/08/05 17:42:26;;;;;;;0.93;0.75;;;28.80;49.90;;;;;;20747720;28;20038;-73
2022/08/05 17:52:26;;;;;;;1.33;0.70;;;28.80;50.10;;;;;;20746544;28;20038;-72
2022/08/05 18:02:27;;;;;;;0.82;0.60;;;28.80;50.00;;;;;;20745893;28;20556;-74
2022/08/05 18:12:27;;;;;;;2.15;0.95;;;28.80;49.90;;;;;;20745308;28;20511;-73
2022/08/05 18:22:28;;;;;;;0.63;0.52;;;28.80;50.10;;;;;;20729349;28;20112;-73
2022/08/05 18:32:29;;;;;;;1.17;0.60;;;28.70;50.10;;;;;;20744172;28;20124;-72
2022/08/05 18:42:29;;;;;;;1.63;0.77;;;28.70;50.20;;;;;;20727241;28;20477;-72
2022/08/05 18:52:40;;;;;;;0.53;0.50;;;28.60;50.20;;;;;;20742442;28;20062;-71
2022/08/05 19:02:40;;;;;;;0.73;0.52;;;28.60;50.30;;;;;;20742901;28;20081;-72
2022/08/05 19:12:41;;;;;;;0.73;0.63;;;28.50;50.30;;;;;;20741177;28;20133;-75
2022/08/05 19:22:43;;;;;;;0.87;0.63;;;28.50;50.40;;;;;;20724052;28;20030;-73
2022/08/05 19:32:44;;;;;;;1.85;0.68;;;28.50;50.60;;;;;;20723511;28;20814;-76
2022/08/05 19:42:45;;;;;;;0.80;0.47;;;28.40;50.60;;;;;;20707162;28;20033;-73
2022/08/05 19:52:45;;;;;;;0.73;0.57;;;28.40;50.60;;;;;;20724295;28;20583;-72
2022/08/05 20:02:46;;;;;;;1.05;0.63;;;28.40;50.60;;;;;;20740691;28;20037;-72
2022/08/05 20:12:47;;;;;;;0.65;0.45;;;28.40;50.50;;;;;;20713690;28;20125;-73
2022/08/05 20:22:47;;;;;;;1.50;0.55;;;28.30;50.30;;;;;;20736920;28;20041;-72
2022/08/05 20:32:48;;;;;;;1.15;0.43;;;28.30;50.20;;;;;;20752504;28;20096;-73
2022/08/05 20:42:48;;;;;;;0.22;0.22;;;28.30;50.20;;;;;;20735971;28;20396;-73
2022/08/05 20:52:49;;;;;;;0.65;0.52;;;28.20;50.10;;;;;;20734572;28;20524;-72
2022/08/05 21:02:54;;;;;;;0.52;0.35;;;28.20;50.00;;;;;;20750967;28;20045;-75
2022/08/05 21:12:54;;;;;;;0.30;0.25;;;28.20;50.00;;;;;;20734503;28;20033;-74
2022/08/05 21:22:55;;;;;;;2.08;0.30;;;28.10;49.80;;;;;;20731897;28;20061;-73
2022/08/05 21:32:56;;;;;;;0.55;0.43;;;28.10;50.50;;;;;;20731721;28;20137;-72
2022/08/05 21:42:56;;;;;;;0.50;0.40;;;28.10;49.70;;;;;;20714750;28;20034;-71
2022/08/05 21:52:57;;;;;;;0.40;0.30;;;28.10;49.70;;;;;;20714750;28;20100;-71
2022/08/05 22:02:58;;;;;;;0.45;0.35;;;28.00;49.60;;;;;;20713552;28;20489;-73
2022/08/05 22:12:59;;;;;;;0.60;0.30;;;28.00;49.60;;;;;;20729361;28;20034;-72
2022/08/05 22:33:19;;;;;;;0.68;0.30;;;27.90;49.40;;;;;;20729001;28;20042;-72
2022/08/05 22:43:19;;;;;;;0.40;0.40;;;27.90;49.40;;;;;;20742953;28;20061;-72
2022/08/05 22:53:20;;;;;;;0.30;0.30;;;27.80;49.30;;;;;;20726173;28;20397;-72
2022/08/05 23:03:21;;;;;;;0.20;0.20;;;27.80;49.20;;;;;;20741671;28;20046;-70
2022/08/05 23:13:21;;;;;;;0.93;0.40;;;27.80;49.20;;;;;;20709216;28;20052;-73
2022/08/05 23:23:22;;;;;;;0.83;0.53;;;27.70;49.10;;;;;;20724353;28;20111;-71
2022/08/05 23:33:22;;;;;;;0.38;0.35;;;27.70;49.10;;;;;;20723185;28;20038;-71
2022/08/05 23:43:23;;;;;;;0.30;0.30;;;27.70;49.10;;;;;;20724342;28;20033;-72
2022/08/05 23:53:24;;;;;;;0.43;0.38;;;27.70;49.00;;;;;;20739882;28;20103;-71
